sensor_id;sensor_type;location;lat;lon;timestamp;P1;durP1;ratioP1;P2;durP2;ratioP2
16775;SDS011;8505;49.456;8.164;2023-04-15T00:02:18;6.88;;;1.88;;
16775;SDS011;8505;49.456;8.164;2023-04-15T00:04:47;7.57;;;1.90;;
16775;SDS011;8505;49.456;8.164;2023-04-15T00:07:15;6.88;;;1.90;;
16775;SDS011;8505;49.456;8.164;2023-04-15T00:09:43;7.72;;;1.85;;
16775;SDS011;8505;49.456;8.164;2023-04-15T00:12:11;5.20;;;1.58;;
16775;SDS011;8505;49.456;8.164;2023-04-15T00:14:38;6.50;;;1.70;;
16775;SDS011;8505;49.456;8.164;2023-04-15T00:17:06;5.80;;;1.83;;
16775;SDS011;8505;49.456;8.164;2023-04-15T00:19:34;6.88;;;1.83;;
16775;SDS011;8505;49.456;8.164;2023-04-15T00:22:03;5.30;;;2.00;;
16775;SDS011;8505;49.456;8.164;2023-04-15T00:24:31;10.52;;;1.98;;
16775;SDS011;8505;49.456;8.164;2023-04-15T00:26:59;6.97;;;1.90;;
16775;SDS011;8505;49.456;8.164;2023-04-15T00:29:27;5.00;;;1.80;;
16775;SDS011;8505;49.456;8.164;2023-04-15T00:31:55;8.40;;;1.90;;
16775;SDS011;8505;49.456;8.164;2023-04-15T00:34:23;7.60;;;2.10;;
16775;SDS011;8505;49.456;8.164;2023-04-15T00:36:51;6.28;;;1.63;;
16775;SDS011;8505;49.456;8.164;2023-04-15T00:39:21;6.50;;;2.00;;
16775;SDS011;8505;49.456;8.164;2023-04-15T00:41:49;6.18;;;1.90;;
16775;SDS011;8505;49.456;8.164;2023-04-15T00:44:16;6.88;;;1.90;;
16775;SDS011;8505;49.456;8.164;2023-04-15T00:46:45;5.90;;;1.90;;
16775;SDS011;8505;49.456;8.164;2023-04-15T00:49:13;5.85;;;2.00;;
16775;SDS011;8505;49.456;8.164;2023-04-15T00:51:41;6.20;;;2.20;;
16775;SDS011;8505;49.456;8.164;2023-04-15T00:54:10;7.30;;;1.90;;
16775;SDS011;8505;49.456;8.164;2023-04-15T00:56:39;8.73;;;2.20;;
16775;SDS011;8505;49.456;8.164;2023-04-15T00:59:07;4.78;;;1.90;;
16775;SDS011;8505;49.456;8.164;2023-04-15T01:01:36;6.83;;;2.13;;
16775;SDS011;8505;49.456;8.164;2023-04-15T01:04:04;9.68;;;2.15;;
16775;SDS011;8505;49.456;8.164;2023-04-15T01:06:32;6.13;;;1.83;;
16775;SDS011;8505;49.456;8.164;2023-04-15T01:09:00;6.35;;;1.90;;
16775;SDS011;8505;49.456;8.164;2023-04-15T01:11:29;7.32;;;1.90;;
16775;SDS011;8505;49.456;8.164;2023-04-15T01:14:00;5.65;;;1.75;;
16775;SDS011;8505;49.456;8.164;2023-04-15T01:16:28;8.02;;;1.88;;
16775;SDS011;8505;49.456;8.164;2023-04-15T01:18:55;7.07;;;1.92;;
16775;SDS011;8505;49.456;8.164;2023-04-15T01:21:24;6.35;;;2.00;;
16775;SDS011;8505;49.456;8.164;2023-04-15T01:23:52;5.45;;;2.00;;
16775;SDS011;8505;49.456;8.164;2023-04-15T01:26:23;7.43;;;2.03;;
16775;SDS011;8505;49.456;8.164;2023-04-15T01:28:51;8.90;;;1.98;;
16775;SDS011;8505;49.456;8.164;2023-04-15T01:31:19;6.90;;;2.03;;
16775;SDS011;8505;49.456;8.164;2023-04-15T01:33:48;8.00;;;2.20;;
16775;SDS011;8505;49.456;8.164;2023-04-15T01:36:15;6.18;;;1.90;;
16775;SDS011;8505;49.456;8.164;2023-04-15T01:38:43;8.05;;;2.10;;
16775;SDS011;8505;49.456;8.164;2023-04-15T01:41:12;8.05;;;2.25;;
16775;SDS011;8505;49.456;8.164;2023-04-15T01:43:41;7.40;;;1.88;;
16775;SDS011;8505;49.456;8.164;2023-04-15T01:46:09;6.53;;;1.75;;
16775;SDS011;8505;49.456;8.164;2023-04-15T01:48:37;8.63;;;2.20;;
16775;SDS011;8505;49.456;8.164;2023-04-15T01:51:04;8.55;;;2.13;;
16775;SDS011;8505;49.456;8.164;2023-04-15T01:53:33;7.43;;;2.10;;
16775;SDS011;8505;49.456;8.164;2023-04-15T01:56:00;6.80;;;2.17;;
16775;SDS011;8505;49.456;8.164;2023-04-15T01:58:28;9.27;;;2.50;;
16775;SDS011;8505;49.456;8.164;2023-04-15T02:00:58;6.53;;;2.10;;
16775;SDS011;8505;49.456;8.164;2023-04-15T02:03:25;7.60;;;2.22;;
16775;SDS011;8505;49.456;8.164;2023-04-15T02:05:55;7.82;;;2.35;;
16775;SDS011;8505;49.456;8.164;2023-04-15T02:08:22;6.50;;;2.33;;
16775;SDS011;8505;49.456;8.164;2023-04-15T02:10:50;4.95;;;2.10;;
16775;SDS011;8505;49.456;8.164;2023-04-15T02:13:18;7.25;;;2.00;;
16775;SDS011;8505;49.456;8.164;2023-04-15T02:15:46;9.02;;;2.10;;
16775;SDS011;8505;49.456;8.164;2023-04-15T02:18:16;7.60;;;2.20;;
16775;SDS011;8505;49.456;8.164;2023-04-15T02:20:43;7.00;;;2.30;;
16775;SDS011;8505;49.456;8.164;2023-04-15T02:23:12;6.57;;;2.47;;
16775;SDS011;8505;49.456;8.164;2023-04-15T02:25:40;8.32;;;2.33;;
16775;SDS011;8505;49.456;8.164;2023-04-15T02:28:19;8.07;;;2.25;;
16775;SDS011;8505;49.456;8.164;2023-04-15T02:30:47;8.60;;;2.28;;
16775;SDS011;8505;49.456;8.164;2023-04-15T02:33:17;5.10;;;2.20;;
16775;SDS011;8505;49.456;8.164;2023-04-15T02:35:45;8.65;;;2.60;;
16775;SDS011;8505;49.456;8.164;2023-04-15T02:38:13;10.45;;;2.65;;
16775;SDS011;8505;49.456;8.164;2023-04-15T02:40:43;8.25;;;2.55;;
16775;SDS011;8505;49.456;8.164;2023-04-15T02:43:10;7.78;;;2.70;;
16775;SDS011;8505;49.456;8.164;2023-04-15T02:45:38;8.63;;;2.70;;
16775;SDS011;8505;49.456;8.164;2023-04-15T02:48:06;8.20;;;2.80;;
16775;SDS011;8505;49.456;8.164;2023-04-15T02:50:35;8.83;;;2.60;;
16775;SDS011;8505;49.456;8.164;2023-04-15T02:53:05;8.23;;;2.58;;
16775;SDS011;8505;49.456;8.164;2023-04-15T02:55:33;11.43;;;3.05;;
16775;SDS011;8505;49.456;8.164;2023-04-15T02:58:01;8.82;;;2.65;;
16775;SDS011;8505;49.456;8.164;2023-04-15T03:00:28;9.13;;;2.60;;
16775;SDS011;8505;49.456;8.164;2023-04-15T03:02:57;9.32;;;2.88;;
16775;SDS011;8505;49.456;8.164;2023-04-15T03:05:25;8.85;;;2.60;;
16775;SDS011;8505;49.456;8.164;2023-04-15T03:07:55;8.55;;;2.50;;
16775;SDS011;8505;49.456;8.164;2023-04-15T03:10:23;8.65;;;2.35;;
16775;SDS011;8505;49.456;8.164;2023-04-15T03:12:50;8.65;;;2.40;;
16775;SDS011;8505;49.456;8.164;2023-04-15T03:15:18;9.00;;;2.47;;
16775;SDS011;8505;49.456;8.164;2023-04-15T03:17:46;8.48;;;2.80;;
16775;SDS011;8505;49.456;8.164;2023-04-15T03:20:15;7.65;;;2.70;;
16775;SDS011;8505;49.456;8.164;2023-04-15T03:22:42;8.52;;;2.50;;
16775;SDS011;8505;49.456;8.164;2023-04-15T03:25:11;6.38;;;2.72;;
16775;SDS011;8505;49.456;8.164;2023-04-15T03:27:40;6.60;;;2.38;;
16775;SDS011;8505;49.456;8.164;2023-04-15T03:30:08;8.10;;;2.80;;
16775;SDS011;8505;49.456;8.164;2023-04-15T03:32:37;8.02;;;2.78;;
16775;SDS011;8505;49.456;8.164;2023-04-15T03:35:05;7.60;;;2.50;;
16775;SDS011;8505;49.456;8.164;2023-04-15T03:37:33;8.38;;;2.38;;
16775;SDS011;8505;49.456;8.164;2023-04-15T03:40:01;9.52;;;2.70;;
16775;SDS011;8505;49.456;8.164;2023-04-15T03:42:30;7.72;;;2.63;;
16775;SDS011;8505;49.456;8.164;2023-04-15T03:44:58;9.15;;;2.60;;
16775;SDS011;8505;49.456;8.164;2023-04-15T03:47:25;8.15;;;2.90;;
16775;SDS011;8505;49.456;8.164;2023-04-15T03:49:53;8.23;;;2.63;;
16775;SDS011;8505;49.456;8.164;2023-04-15T03:52:21;9.73;;;3.05;;
16775;SDS011;8505;49.456;8.164;2023-04-15T03:54:48;9.00;;;2.78;;
16775;SDS011;8505;49.456;8.164;2023-04-15T03:57:16;8.63;;;2.63;;
16775;SDS011;8505;49.456;8.164;2023-04-15T03:59:45;8.02;;;2.90;;
16775;SDS011;8505;49.456;8.164;2023-04-15T04:02:13;8.65;;;2.70;;
16775;SDS011;8505;49.456;8.164;2023-04-15T04:04:41;10.95;;;2.95;;
16775;SDS011;8505;49.456;8.164;2023-04-15T04:07:13;10.07;;;3.38;;
16775;SDS011;8505;49.456;8.164;2023-04-15T04:09:41;9.45;;;3.22;;
16775;SDS011;8505;49.456;8.164;2023-04-15T04:12:12;8.25;;;3.25;;
16775;SDS011;8505;49.456;8.164;2023-04-15T04:14:39;8.03;;;2.93;;
16775;SDS011;8505;49.456;8.164;2023-04-15T04:17:08;9.52;;;3.00;;
16775;SDS011;8505;49.456;8.164;2023-04-15T04:19:36;8.05;;;2.90;;
16775;SDS011;8505;49.456;8.164;2023-04-15T04:22:04;9.35;;;3.03;;
16775;SDS011;8505;49.456;8.164;2023-04-15T04:24:32;11.70;;;3.08;;
16775;SDS011;8505;49.456;8.164;2023-04-15T04:27:00;8.48;;;2.90;;
16775;SDS011;8505;49.456;8.164;2023-04-15T04:29:27;9.95;;;2.92;;
16775;SDS011;8505;49.456;8.164;2023-04-15T04:31:55;9.57;;;2.83;;
16775;SDS011;8505;49.456;8.164;2023-04-15T04:34:24;11.18;;;2.88;;
16775;SDS011;8505;49.456;8.164;2023-04-15T04:36:52;9.57;;;3.28;;
16775;SDS011;8505;49.456;8.164;2023-04-15T04:39:20;11.13;;;3.40;;
16775;SDS011;8505;49.456;8.164;2023-04-15T04:41:48;11.38;;;3.38;;
16775;SDS011;8505;49.456;8.164;2023-04-15T04:44:17;9.30;;;2.92;;
16775;SDS011;8505;49.456;8.164;2023-04-15T04:46:45;13.00;;;3.27;;
16775;SDS011;8505;49.456;8.164;2023-04-15T04:49:12;9.43;;;3.17;;
16775;SDS011;8505;49.456;8.164;2023-04-15T04:51:42;8.63;;;2.77;;
16775;SDS011;8505;49.456;8.164;2023-04-15T04:54:10;8.75;;;2.92;;
16775;SDS011;8505;49.456;8.164;2023-04-15T04:56:38;8.23;;;3.08;;
16775;SDS011;8505;49.456;8.164;2023-04-15T04:59:06;7.45;;;2.80;;
16775;SDS011;8505;49.456;8.164;2023-04-15T05:01:34;7.38;;;3.00;;
16775;SDS011;8505;49.456;8.164;2023-04-15T05:04:02;8.23;;;3.00;;
16775;SDS011;8505;49.456;8.164;2023-04-15T05:06:31;9.45;;;3.30;;
16775;SDS011;8505;49.456;8.164;2023-04-15T05:09:00;10.50;;;3.55;;
16775;SDS011;8505;49.456;8.164;2023-04-15T05:11:28;8.37;;;3.30;;
16775;SDS011;8505;49.456;8.164;2023-04-15T05:13:56;7.95;;;3.00;;
16775;SDS011;8505;49.456;8.164;2023-04-15T05:16:24;11.07;;;3.10;;
16775;SDS011;8505;49.456;8.164;2023-04-15T05:18:52;7.00;;;2.93;;
16775;SDS011;8505;49.456;8.164;2023-04-15T05:21:20;9.98;;;3.00;;
16775;SDS011;8505;49.456;8.164;2023-04-15T05:23:47;9.57;;;3.03;;
16775;SDS011;8505;49.456;8.164;2023-04-15T05:26:17;8.60;;;3.00;;
16775;SDS011;8505;49.456;8.164;2023-04-15T05:28:44;8.95;;;3.13;;
16775;SDS011;8505;49.456;8.164;2023-04-15T05:31:13;10.20;;;3.30;;
16775;SDS011;8505;49.456;8.164;2023-04-15T05:33:40;8.00;;;2.90;;
16775;SDS011;8505;49.456;8.164;2023-04-15T05:36:08;9.20;;;2.97;;
16775;SDS011;8505;49.456;8.164;2023-04-15T05:38:37;5.85;;;2.80;;
16775;SDS011;8505;49.456;8.164;2023-04-15T05:41:05;9.52;;;3.20;;
16775;SDS011;8505;49.456;8.164;2023-04-15T05:43:34;8.10;;;2.88;;
16775;SDS011;8505;49.456;8.164;2023-04-15T05:46:01;8.90;;;2.90;;
16775;SDS011;8505;49.456;8.164;2023-04-15T05:48:33;8.40;;;3.00;;
16775;SDS011;8505;49.456;8.164;2023-04-15T05:51:01;6.78;;;2.90;;
16775;SDS011;8505;49.456;8.164;2023-04-15T05:53:29;8.60;;;3.30;;
16775;SDS011;8505;49.456;8.164;2023-04-15T05:55:57;8.63;;;3.03;;
16775;SDS011;8505;49.456;8.164;2023-04-15T05:58:24;7.07;;;3.43;;
16775;SDS011;8505;49.456;8.164;2023-04-15T06:00:54;9.25;;;3.17;;
16775;SDS011;8505;49.456;8.164;2023-04-15T06:03:22;7.45;;;2.83;;
16775;SDS011;8505;49.456;8.164;2023-04-15T06:05:49;6.93;;;2.78;;
16775;SDS011;8505;49.456;8.164;2023-04-15T06:08:17;7.05;;;2.53;;
16775;SDS011;8505;49.456;8.164;2023-04-15T06:10:45;7.60;;;2.75;;
16775;SDS011;8505;49.456;8.164;2023-04-15T06:13:13;6.50;;;2.60;;
16775;SDS011;8505;49.456;8.164;2023-04-15T06:15:42;8.25;;;2.60;;
16775;SDS011;8505;49.456;8.164;2023-04-15T06:18:11;7.07;;;2.43;;
16775;SDS011;8505;49.456;8.164;2023-04-15T06:20:39;5.97;;;2.42;;
16775;SDS011;8505;49.456;8.164;2023-04-15T06:23:06;6.60;;;2.60;;
16775;SDS011;8505;49.456;8.164;2023-04-15T06:25:34;7.30;;;2.47;;
16775;SDS011;8505;49.456;8.164;2023-04-15T06:28:02;7.43;;;2.45;;
16775;SDS011;8505;49.456;8.164;2023-04-15T06:30:30;7.93;;;2.80;;
16775;SDS011;8505;49.456;8.164;2023-04-15T06:32:58;9.40;;;2.78;;
16775;SDS011;8505;49.456;8.164;2023-04-15T06:35:27;7.20;;;2.53;;
16775;SDS011;8505;49.456;8.164;2023-04-15T06:37:55;7.60;;;2.85;;
16775;SDS011;8505;49.456;8.164;2023-04-15T06:40:22;7.90;;;2.35;;
16775;SDS011;8505;49.456;8.164;2023-04-15T06:42:50;8.50;;;2.40;;
16775;SDS011;8505;49.456;8.164;2023-04-15T06:45:18;6.20;;;2.35;;
16775;SDS011;8505;49.456;8.164;2023-04-15T06:47:45;8.75;;;2.53;;
16775;SDS011;8505;49.456;8.164;2023-04-15T06:50:13;8.20;;;2.40;;
16775;SDS011;8505;49.456;8.164;2023-04-15T06:52:42;6.47;;;2.30;;
16775;SDS011;8505;49.456;8.164;2023-04-15T06:55:10;6.70;;;2.17;;
16775;SDS011;8505;49.456;8.164;2023-04-15T06:57:38;6.95;;;2.22;;
16775;SDS011;8505;49.456;8.164;2023-04-15T07:00:06;6.05;;;2.10;;
16775;SDS011;8505;49.456;8.164;2023-04-15T07:02:36;6.53;;;2.40;;
16775;SDS011;8505;49.456;8.164;2023-04-15T07:05:05;7.28;;;2.40;;
16775;SDS011;8505;49.456;8.164;2023-04-15T07:07:33;5.70;;;2.22;;
16775;SDS011;8505;49.456;8.164;2023-04-15T07:10:02;8.68;;;2.75;;
16775;SDS011;8505;49.456;8.164;2023-04-15T07:12:31;7.28;;;2.75;;
16775;SDS011;8505;49.456;8.164;2023-04-15T07:14:58;6.53;;;2.90;;
16775;SDS011;8505;49.456;8.164;2023-04-15T07:17:26;6.57;;;2.55;;
16775;SDS011;8505;49.456;8.164;2023-04-15T07:19:54;6.55;;;2.92;;
16775;SDS011;8505;49.456;8.164;2023-04-15T07:22:22;5.20;;;2.40;;
16775;SDS011;8505;49.456;8.164;2023-04-15T07:24:50;6.53;;;2.58;;
16775;SDS011;8505;49.456;8.164;2023-04-15T07:27:19;6.57;;;2.33;;
16775;SDS011;8505;49.456;8.164;2023-04-15T07:29:47;6.95;;;2.20;;
16775;SDS011;8505;49.456;8.164;2023-04-15T07:32:16;6.63;;;2.40;;
16775;SDS011;8505;49.456;8.164;2023-04-15T07:34:44;7.40;;;2.10;;
16775;SDS011;8505;49.456;8.164;2023-04-15T07:37:12;5.25;;;2.10;;
16775;SDS011;8505;49.456;8.164;2023-04-15T07:39:40;7.10;;;2.00;;
16775;SDS011;8505;49.456;8.164;2023-04-15T07:42:08;6.43;;;2.20;;
16775;SDS011;8505;49.456;8.164;2023-04-15T07:44:37;7.18;;;2.30;;
16775;SDS011;8505;49.456;8.164;2023-04-15T07:47:05;5.82;;;1.90;;
16775;SDS011;8505;49.456;8.164;2023-04-15T07:49:33;5.50;;;2.00;;
16775;SDS011;8505;49.456;8.164;2023-04-15T07:52:01;5.35;;;2.05;;
16775;SDS011;8505;49.456;8.164;2023-04-15T07:54:29;6.25;;;2.60;;
16775;SDS011;8505;49.456;8.164;2023-04-15T07:56:57;7.03;;;2.70;;
16775;SDS011;8505;49.456;8.164;2023-04-15T07:59:25;6.57;;;2.70;;
16775;SDS011;8505;49.456;8.164;2023-04-15T08:01:56;6.55;;;2.60;;
16775;SDS011;8505;49.456;8.164;2023-04-15T08:04:24;6.10;;;2.72;;
16775;SDS011;8505;49.456;8.164;2023-04-15T08:06:52;6.10;;;2.72;;
16775;SDS011;8505;49.456;8.164;2023-04-15T08:09:20;6.15;;;2.90;;
16775;SDS011;8505;49.456;8.164;2023-04-15T08:11:48;6.27;;;3.07;;
16775;SDS011;8505;49.456;8.164;2023-04-15T08:14:16;8.68;;;3.60;;
16775;SDS011;8505;49.456;8.164;2023-04-15T08:16:44;6.32;;;3.28;;
16775;SDS011;8505;49.456;8.164;2023-04-15T08:19:13;5.90;;;3.60;;
16775;SDS011;8505;49.456;8.164;2023-04-15T08:21:41;7.50;;;3.77;;
16775;SDS011;8505;49.456;8.164;2023-04-15T08:24:08;9.60;;;3.90;;
16775;SDS011;8505;49.456;8.164;2023-04-15T08:26:36;7.78;;;3.80;;
16775;SDS011;8505;49.456;8.164;2023-04-15T08:29:04;8.93;;;3.97;;
16775;SDS011;8505;49.456;8.164;2023-04-15T08:31:32;8.25;;;3.72;;
16775;SDS011;8505;49.456;8.164;2023-04-15T08:34:00;9.13;;;4.13;;
16775;SDS011;8505;49.456;8.164;2023-04-15T08:36:30;7.70;;;4.30;;
16775;SDS011;8505;49.456;8.164;2023-04-15T08:38:58;8.73;;;4.40;;
16775;SDS011;8505;49.456;8.164;2023-04-15T08:41:27;9.10;;;4.22;;
16775;SDS011;8505;49.456;8.164;2023-04-15T08:44:02;8.02;;;4.25;;
16775;SDS011;8505;49.456;8.164;2023-04-15T08:46:31;9.77;;;4.13;;
16775;SDS011;8505;49.456;8.164;2023-04-15T08:49:01;6.82;;;4.32;;
16775;SDS011;8505;49.456;8.164;2023-04-15T08:51:32;8.43;;;4.40;;
16775;SDS011;8505;49.456;8.164;2023-04-15T08:54:00;8.95;;;4.22;;
16775;SDS011;8505;49.456;8.164;2023-04-15T08:56:29;9.93;;;4.30;;
16775;SDS011;8505;49.456;8.164;2023-04-15T08:58:58;8.93;;;4.43;;
16775;SDS011;8505;49.456;8.164;2023-04-15T09:01:26;7.60;;;4.13;;
16775;SDS011;8505;49.456;8.164;2023-04-15T09:03:55;7.63;;;4.35;;
16775;SDS011;8505;49.456;8.164;2023-04-15T09:06:25;9.25;;;4.85;;
16775;SDS011;8505;49.456;8.164;2023-04-15T09:08:54;7.72;;;4.53;;
16775;SDS011;8505;49.456;8.164;2023-04-15T09:11:22;8.70;;;4.70;;
16775;SDS011;8505;49.456;8.164;2023-04-15T09:13:50;9.35;;;5.20;;
16775;SDS011;8505;49.456;8.164;2023-04-15T09:16:17;8.27;;;4.90;;
16775;SDS011;8505;49.456;8.164;2023-04-15T09:18:45;8.43;;;4.50;;
16775;SDS011;8505;49.456;8.164;2023-04-15T09:21:13;7.93;;;4.60;;
16775;SDS011;8505;49.456;8.164;2023-04-15T09:23:54;10.00;;;4.90;;
16775;SDS011;8505;49.456;8.164;2023-04-15T09:26:29;9.40;;;5.20;;
16775;SDS011;8505;49.456;8.164;2023-04-15T09:29:02;9.82;;;5.30;;
16775;SDS011;8505;49.456;8.164;2023-04-15T09:31:31;9.82;;;5.53;;
16775;SDS011;8505;49.456;8.164;2023-04-15T09:33:59;9.05;;;5.55;;
16775;SDS011;8505;49.456;8.164;2023-04-15T09:36:28;8.27;;;5.43;;
16775;SDS011;8505;49.456;8.164;2023-04-15T09:38:58;8.40;;;5.32;;
16775;SDS011;8505;49.456;8.164;2023-04-15T09:41:26;10.10;;;4.97;;
16775;SDS011;8505;49.456;8.164;2023-04-15T09:43:54;8.75;;;5.20;;
16775;SDS011;8505;49.456;8.164;2023-04-15T09:49:08;8.75;;;4.97;;
16775;SDS011;8505;49.456;8.164;2023-04-15T09:51:37;8.27;;;4.80;;
16775;SDS011;8505;49.456;8.164;2023-04-15T09:54:06;7.55;;;5.03;;
16775;SDS011;8505;49.456;8.164;2023-04-15T09:56:34;8.18;;;4.75;;
16775;SDS011;8505;49.456;8.164;2023-04-15T09:59:03;9.18;;;5.00;;
16775;SDS011;8505;49.456;8.164;2023-04-15T10:01:32;9.23;;;5.03;;
16775;SDS011;8505;49.456;8.164;2023-04-15T10:04:01;9.30;;;5.00;;
16775;SDS011;8505;49.456;8.164;2023-04-15T10:06:30;16.23;;;5.28;;
16775;SDS011;8505;49.456;8.164;2023-04-15T10:08:58;14.98;;;4.85;;
16775;SDS011;8505;49.456;8.164;2023-04-15T10:11:28;14.40;;;4.82;;
16775;SDS011;8505;49.456;8.164;2023-04-15T10:13:57;8.38;;;4.45;;
16775;SDS011;8505;49.456;8.164;2023-04-15T10:16:26;9.23;;;4.80;;
16775;SDS011;8505;49.456;8.164;2023-04-15T10:18:55;8.35;;;5.10;;
16775;SDS011;8505;49.456;8.164;2023-04-15T10:21:23;13.07;;;5.70;;
16775;SDS011;8505;49.456;8.164;2023-04-15T10:23:51;8.68;;;5.50;;
16775;SDS011;8505;49.456;8.164;2023-04-15T10:26:19;8.88;;;4.88;;
16775;SDS011;8505;49.456;8.164;2023-04-15T10:28:49;10.20;;;5.70;;
16775;SDS011;8505;49.456;8.164;2023-04-15T10:31:18;7.22;;;4.60;;
16775;SDS011;8505;49.456;8.164;2023-04-15T10:33:47;9.73;;;4.20;;
16775;SDS011;8505;49.456;8.164;2023-04-15T10:36:16;5.88;;;3.90;;
16775;SDS011;8505;49.456;8.164;2023-04-15T10:38:45;6.82;;;3.70;;
16775;SDS011;8505;49.456;8.164;2023-04-15T10:41:17;5.68;;;3.38;;
16775;SDS011;8505;49.456;8.164;2023-04-15T10:43:49;7.63;;;3.67;;
16775;SDS011;8505;49.456;8.164;2023-04-15T10:46:20;7.82;;;3.80;;
16775;SDS011;8505;49.456;8.164;2023-04-15T10:48:49;10.88;;;4.40;;
16775;SDS011;8505;49.456;8.164;2023-04-15T10:51:28;8.65;;;4.40;;
16775;SDS011;8505;49.456;8.164;2023-04-15T10:53:57;10.00;;;4.53;;
16775;SDS011;8505;49.456;8.164;2023-04-15T10:56:27;9.38;;;4.07;;
16775;SDS011;8505;49.456;8.164;2023-04-15T10:58:59;9.83;;;4.63;;
16775;SDS011;8505;49.456;8.164;2023-04-15T11:07:32;7.22;;;4.10;;
16775;SDS011;8505;49.456;8.164;2023-04-15T11:13:15;6.88;;;3.70;;
16775;SDS011;8505;49.456;8.164;2023-04-15T11:15:45;7.35;;;4.22;;
16775;SDS011;8505;49.456;8.164;2023-04-15T11:18:17;12.05;;;4.85;;
16775;SDS011;8505;49.456;8.164;2023-04-15T11:20:48;9.55;;;4.43;;
16775;SDS011;8505;49.456;8.164;2023-04-15T11:23:17;6.38;;;4.00;;
16775;SDS011;8505;49.456;8.164;2023-04-15T11:25:46;8.70;;;3.90;;
16775;SDS011;8505;49.456;8.164;2023-04-15T11:28:14;7.80;;;3.88;;
16775;SDS011;8505;49.456;8.164;2023-04-15T11:30:42;7.15;;;3.67;;
16775;SDS011;8505;49.456;8.164;2023-04-15T11:33:11;7.03;;;3.07;;
16775;SDS011;8505;49.456;8.164;2023-04-15T11:35:39;6.47;;;3.03;;
16775;SDS011;8505;49.456;8.164;2023-04-15T11:38:08;5.87;;;2.83;;
16775;SDS011;8505;49.456;8.164;2023-04-15T11:40:37;6.07;;;2.78;;
16775;SDS011;8505;49.456;8.164;2023-04-15T11:43:06;5.80;;;2.80;;
16775;SDS011;8505;49.456;8.164;2023-04-15T11:45:35;10.23;;;2.85;;
16775;SDS011;8505;49.456;8.164;2023-04-15T11:48:04;7.90;;;3.60;;
16775;SDS011;8505;49.456;8.164;2023-04-15T11:50:34;7.10;;;3.50;;
16775;SDS011;8505;49.456;8.164;2023-04-15T11:53:03;10.50;;;3.40;;
16775;SDS011;8505;49.456;8.164;2023-04-15T11:55:40;5.75;;;3.20;;
16775;SDS011;8505;49.456;8.164;2023-04-15T11:58:10;6.13;;;3.30;;
16775;SDS011;8505;49.456;8.164;2023-04-15T12:00:45;6.67;;;3.77;;
16775;SDS011;8505;49.456;8.164;2023-04-15T12:03:16;6.78;;;3.20;;
16775;SDS011;8505;49.456;8.164;2023-04-15T12:06:03;7.07;;;3.30;;
16775;SDS011;8505;49.456;8.164;2023-04-15T12:11:30;6.15;;;3.30;;
16775;SDS011;8505;49.456;8.164;2023-04-15T12:14:03;4.78;;;3.15;;
16775;SDS011;8505;49.456;8.164;2023-04-15T12:16:33;5.80;;;3.38;;
16775;SDS011;8505;49.456;8.164;2023-04-15T12:19:15;5.65;;;3.05;;
16775;SDS011;8505;49.456;8.164;2023-04-15T12:21:46;7.78;;;3.10;;
16775;SDS011;8505;49.456;8.164;2023-04-15T12:24:18;6.05;;;3.38;;
16775;SDS011;8505;49.456;8.164;2023-04-15T12:26:47;7.80;;;3.80;;
16775;SDS011;8505;49.456;8.164;2023-04-15T12:29:16;9.55;;;4.15;;
16775;SDS011;8505;49.456;8.164;2023-04-15T12:31:48;8.03;;;3.90;;
16775;SDS011;8505;49.456;8.164;2023-04-15T12:34:17;7.75;;;4.10;;
16775;SDS011;8505;49.456;8.164;2023-04-15T12:36:47;5.93;;;3.30;;
16775;SDS011;8505;49.456;8.164;2023-04-15T12:39:15;7.18;;;3.45;;
16775;SDS011;8505;49.456;8.164;2023-04-15T12:41:43;5.28;;;3.15;;
16775;SDS011;8505;49.456;8.164;2023-04-15T12:44:11;5.35;;;2.60;;
16775;SDS011;8505;49.456;8.164;2023-04-15T12:46:39;7.18;;;2.63;;
16775;SDS011;8505;49.456;8.164;2023-04-15T12:49:07;5.70;;;2.50;;
16775;SDS011;8505;49.456;8.164;2023-04-15T12:51:35;5.30;;;2.20;;
16775;SDS011;8505;49.456;8.164;2023-04-15T12:54:04;4.57;;;2.40;;
16775;SDS011;8505;49.456;8.164;2023-04-15T12:56:32;4.60;;;2.13;;
16775;SDS011;8505;49.456;8.164;2023-04-15T12:59:00;4.80;;;2.00;;
16775;SDS011;8505;49.456;8.164;2023-04-15T13:01:30;5.97;;;2.15;;
16775;SDS011;8505;49.456;8.164;2023-04-15T13:03:58;4.80;;;1.70;;
16775;SDS011;8505;49.456;8.164;2023-04-15T13:06:26;4.65;;;1.52;;
16775;SDS011;8505;49.456;8.164;2023-04-15T13:08:54;4.85;;;1.88;;
16775;SDS011;8505;49.456;8.164;2023-04-15T13:11:25;4.07;;;1.90;;
16775;SDS011;8505;49.456;8.164;2023-04-15T13:13:56;5.32;;;2.00;;
16775;SDS011;8505;49.456;8.164;2023-04-15T13:16:24;4.55;;;1.90;;
16775;SDS011;8505;49.456;8.164;2023-04-15T13:18:52;3.08;;;1.38;;
16775;SDS011;8505;49.456;8.164;2023-04-15T13:21:19;3.00;;;1.38;;
16775;SDS011;8505;49.456;8.164;2023-04-15T13:23:47;4.43;;;1.70;;
16775;SDS011;8505;49.456;8.164;2023-04-15T13:26:16;3.25;;;1.60;;
16775;SDS011;8505;49.456;8.164;2023-04-15T13:28:45;4.03;;;1.48;;
16775;SDS011;8505;49.456;8.164;2023-04-15T13:31:13;4.03;;;1.50;;
16775;SDS011;8505;49.456;8.164;2023-04-15T13:33:41;4.85;;;1.73;;
16775;SDS011;8505;49.456;8.164;2023-04-15T13:36:08;4.35;;;1.38;;
16775;SDS011;8505;49.456;8.164;2023-04-15T13:38:36;3.60;;;1.52;;
16775;SDS011;8505;49.456;8.164;2023-04-15T13:41:04;3.17;;;1.30;;
16775;SDS011;8505;49.456;8.164;2023-04-15T13:43:32;4.68;;;1.85;;
16775;SDS011;8505;49.456;8.164;2023-04-15T13:46:01;2.97;;;1.38;;
16775;SDS011;8505;49.456;8.164;2023-04-15T13:48:29;3.92;;;1.25;;
16775;SDS011;8505;49.456;8.164;2023-04-15T13:50:56;4.13;;;1.10;;
16775;SDS011;8505;49.456;8.164;2023-04-15T13:53:25;3.00;;;0.93;;
16775;SDS011;8505;49.456;8.164;2023-04-15T13:56:05;2.33;;;0.80;;
16775;SDS011;8505;49.456;8.164;2023-04-15T13:58:33;1.33;;;0.80;;
16775;SDS011;8505;49.456;8.164;2023-04-15T14:01:02;2.20;;;0.70;;
16775;SDS011;8505;49.456;8.164;2023-04-15T14:03:31;1.88;;;0.60;;
16775;SDS011;8505;49.456;8.164;2023-04-15T14:06:00;3.28;;;0.80;;
16775;SDS011;8505;49.456;8.164;2023-04-15T14:08:28;2.85;;;1.40;;
16775;SDS011;8505;49.456;8.164;2023-04-15T14:10:56;3.95;;;1.80;;
16775;SDS011;8505;49.456;8.164;2023-04-15T14:13:24;4.13;;;2.15;;
16775;SDS011;8505;49.456;8.164;2023-04-15T14:15:52;3.00;;;1.27;;
16775;SDS011;8505;49.456;8.164;2023-04-15T14:18:21;3.25;;;0.80;;
16775;SDS011;8505;49.456;8.164;2023-04-15T14:20:49;2.25;;;0.57;;
16775;SDS011;8505;49.456;8.164;2023-04-15T14:23:17;1.77;;;0.73;;
16775;SDS011;8505;49.456;8.164;2023-04-15T14:25:45;3.30;;;1.10;;
16775;SDS011;8505;49.456;8.164;2023-04-15T14:28:13;5.05;;;2.17;;
16775;SDS011;8505;49.456;8.164;2023-04-15T14:30:42;3.08;;;1.38;;
16775;SDS011;8505;49.456;8.164;2023-04-15T14:33:10;7.57;;;3.40;;
16775;SDS011;8505;49.456;8.164;2023-04-15T14:35:39;2.67;;;1.43;;
16775;SDS011;8505;49.456;8.164;2023-04-15T14:38:07;2.37;;;1.40;;
16775;SDS011;8505;49.456;8.164;2023-04-15T14:40:36;3.13;;;1.83;;
16775;SDS011;8505;49.456;8.164;2023-04-15T14:43:04;5.57;;;2.50;;
16775;SDS011;8505;49.456;8.164;2023-04-15T14:45:33;5.40;;;2.10;;
16775;SDS011;8505;49.456;8.164;2023-04-15T14:48:01;9.75;;;3.80;;
16775;SDS011;8505;49.456;8.164;2023-04-15T14:50:29;4.03;;;1.20;;
16775;SDS011;8505;49.456;8.164;2023-04-15T14:52:58;4.10;;;1.90;;
16775;SDS011;8505;49.456;8.164;2023-04-15T14:55:26;2.67;;;1.38;;
16775;SDS011;8505;49.456;8.164;2023-04-15T14:57:54;2.30;;;1.10;;
16775;SDS011;8505;49.456;8.164;2023-04-15T15:00:22;1.80;;;0.70;;
16775;SDS011;8505;49.456;8.164;2023-04-15T15:02:50;3.88;;;1.33;;
16775;SDS011;8505;49.456;8.164;2023-04-15T15:05:18;3.53;;;1.70;;
16775;SDS011;8505;49.456;8.164;2023-04-15T15:07:46;4.30;;;2.40;;
16775;SDS011;8505;49.456;8.164;2023-04-15T15:10:15;5.93;;;3.05;;
16775;SDS011;8505;49.456;8.164;2023-04-15T15:13:04;3.50;;;2.22;;
16775;SDS011;8505;49.456;8.164;2023-04-15T15:15:32;4.72;;;2.55;;
16775;SDS011;8505;49.456;8.164;2023-04-15T15:18:00;5.03;;;2.30;;
16775;SDS011;8505;49.456;8.164;2023-04-15T15:20:28;5.53;;;2.50;;
16775;SDS011;8505;49.456;8.164;2023-04-15T15:22:58;5.72;;;2.90;;
16775;SDS011;8505;49.456;8.164;2023-04-15T15:25:27;2.60;;;2.00;;